createdAt,value
2022-10-06T00:01:13.368Z,102030.19
2022-10-06T00:06:18.383Z,102048.78
2022-10-06T00:11:23.448Z,102053.97
2022-10-06T00:16:27.159Z,102066.97
2022-10-06T00:21:30.878Z,102070.47
2022-10-06T00:26:36.051Z,102085.75
2022-10-06T00:31:39.860Z,102099.78
2022-10-06T00:36:43.912Z,102112.41
2022-10-06T00:41:49.014Z,102110.22
2022-10-06T00:46:54.592Z,102120.56
2022-10-06T00:52:03.491Z,102124.87
2022-10-06T00:57:08.956Z,102126.53
2022-10-06T01:02:16.470Z,102148.50
2022-10-06T01:07:22.364Z,102155.66
2022-10-06T01:12:30.662Z,102152.34
2022-10-06T01:17:39.254Z,102168.66
2022-10-06T01:22:46.263Z,102175.72
2022-10-06T01:27:53.785Z,102184.38
2022-10-06T01:32:58.919Z,102188.69
2022-10-06T01:38:04.852Z,102203.03
2022-10-06T01:43:08.802Z,102209.75
2022-10-06T01:48:12.631Z,102220.41
2022-10-06T01:53:18.833Z,102227.16
2022-10-06T01:58:22.572Z,102221.22
2022-10-06T02:03:26.792Z,102237.09
2022-10-06T02:08:32.372Z,102227.59
2022-10-06T02:13:37.600Z,102237.81
2022-10-06T02:18:41.878Z,102253.03
2022-10-06T02:23:47.569Z,102262.53
2022-10-06T02:28:51.431Z,102267.59
2022-10-06T02:33:55.562Z,102278.16
2022-10-06T02:39:01.364Z,102286.63
2022-10-06T02:44:05.624Z,102290.81
2022-10-06T02:49:09.512Z,102295.53
2022-10-06T02:54:15.454Z,102306.03
2022-10-06T02:59:19.174Z,102317.72
2022-10-06T03:04:23.002Z,102323.50
2022-10-06T03:09:29.078Z,102331.19
2022-10-06T03:14:33.357Z,102333.69
2022-10-06T03:19:38.464Z,102340.97
2022-10-06T03:24:43.729Z,102347.38
2022-10-06T03:29:47.595Z,102358.53
2022-10-06T03:34:53.309Z,102358.75
2022-10-06T03:39:58.647Z,102371.28
2022-10-06T03:45:02.643Z,102370.81
2022-10-06T03:50:07.437Z,102386.66
2022-10-06T03:55:12.617Z,102385.66
2022-10-06T04:00:17.224Z,102391.84
2022-10-06T04:05:23.076Z,102402.59
2022-10-06T04:10:28.217Z,102413.88
2022-10-06T04:15:32.539Z,102428.91
2022-10-06T04:20:36.287Z,102436.75
2022-10-06T04:25:41.882Z,102439.75
2022-10-06T04:30:56.533Z,102445.22
2022-10-06T04:36:01.833Z,102452.88
2022-10-06T04:41:09.220Z,102460.00
2022-10-06T04:46:40.803Z,102461.31
2022-10-06T04:51:38.398Z,102467.69
2022-10-06T04:56:43.576Z,102485.06
2022-10-06T05:01:48.121Z,102487.13
2022-10-06T05:06:52.033Z,102498.81
2022-10-06T05:11:57.984Z,102500.50
2022-10-06T05:17:02.260Z,102506.47
2022-10-06T05:22:06.227Z,102511.94
2022-10-06T05:27:12.056Z,102527.34
2022-10-06T05:32:15.930Z,102529.72
2022-10-06T05:37:20.249Z,102550.69
2022-10-06T05:42:29.547Z,102556.19
2022-10-06T05:47:34.324Z,102568.69
2022-10-06T05:52:39.274Z,102563.41
2022-10-06T05:57:44.725Z,102568.25
2022-10-06T06:02:48.657Z,102583.88
2022-10-06T06:07:52.593Z,102586.59
2022-10-06T06:12:57.693Z,102592.22
2022-10-06T06:18:06.023Z,102604.25
2022-10-06T06:23:10.032Z,102603.91
2022-10-06T06:28:15.252Z,102602.69
2022-10-06T06:33:20.612Z,102615.94
2022-10-06T06:38:24.538Z,102615.69
2022-10-06T06:43:30.140Z,102626.84
2022-10-06T06:48:36.011Z,102635.62
2022-10-06T06:53:40.715Z,102644.81
2022-10-06T06:58:48.124Z,102655.59
2022-10-06T07:03:58.797Z,102656.03
2022-10-06T07:09:04.932Z,102661.56
2022-10-06T07:14:12.650Z,102669.19
2022-10-06T07:19:36.416Z,102675.13
2022-10-06T07:24:57.871Z,102692.09
2022-10-06T07:30:03.198Z,102699.84
2022-10-06T07:35:08.792Z,102706.97
2022-10-06T07:40:14.918Z,102715.97
2022-10-06T07:45:41.429Z,102731.25
2022-10-06T07:50:48.028Z,102737.72
2022-10-06T07:55:53.445Z,102731.03
2022-10-06T08:01:06.568Z,102746.22
2022-10-06T08:06:12.372Z,102741.41
2022-10-06T08:11:17.168Z,102762.97
2022-10-06T08:16:24.187Z,102757.06
2022-10-06T08:21:29.937Z,102760.59
2022-10-06T08:26:34.560Z,102768.78
2022-10-06T08:31:39.668Z,102780.06
2022-10-06T08:37:02.105Z,102773.16
2022-10-06T08:42:14.431Z,102777.75
2022-10-06T08:47:22.899Z,102792.69
2022-10-06T08:52:42.425Z,102797.25
2022-10-06T08:57:56.822Z,102796.75
2022-10-06T09:03:02.947Z,102807.72
2022-10-06T09:08:24.557Z,102814.59
2022-10-06T09:13:32.089Z,102807.84
2022-10-06T09:19:06.757Z,102820.28
2022-10-06T09:24:11.485Z,102837.81
2022-10-06T09:29:15.673Z,102852.09
2022-10-06T09:34:31.735Z,102840.34
2022-10-06T09:39:37.549Z,102853.69
2022-10-06T09:44:53.134Z,102847.03
2022-10-06T09:50:22.602Z,102847.88
2022-10-06T09:55:28.779Z,102851.16
2022-10-06T10:00:35.924Z,102858.97
2022-10-06T10:05:48.247Z,102863.69
2022-10-06T10:11:32.458Z,102859.44
2022-10-06T10:16:36.988Z,102856.97
2022-10-06T10:21:46.090Z,102854.25
2022-10-06T10:26:57.948Z,102848.47
2022-10-06T10:32:12.276Z,102861.22
2022-10-06T10:37:24.275Z,102864.06
2022-10-06T10:42:35.157Z,102869.06
2022-10-06T10:47:41.400Z,102860.50
2022-10-06T10:52:49.810Z,102865.88
2022-10-06T10:57:56.895Z,102868.81
2022-10-06T11:03:02.872Z,102864.13
2022-10-06T11:08:16.700Z,102872.50
2022-10-06T11:13:26.245Z,102870.72
2022-10-06T11:18:41.363Z,102877.50
2022-10-06T11:23:53.206Z,102885.09
2022-10-06T11:29:05.226Z,102880.03
2022-10-06T11:34:10.888Z,102874.84
2022-10-06T11:39:25.903Z,102864.59
2022-10-06T11:44:37.605Z,102889.47
2022-10-06T11:49:52.271Z,102873.53
2022-10-06T11:55:07.406Z,102880.72
2022-10-06T12:00:42.172Z,102878.38
2022-10-06T12:06:01.231Z,102874.28
2022-10-06T12:11:40.900Z,102864.75
2022-10-06T12:22:18.109Z,102857.69
2022-10-06T12:27:39.029Z,102843.06
2022-10-06T12:32:53.220Z,102837.78
2022-10-06T12:38:00.585Z,102841.19
2022-10-06T12:43:31.561Z,102847.13
2022-10-06T12:48:41.427Z,102844.47
2022-10-06T12:53:53.295Z,102839.97
2022-10-06T12:58:58.824Z,102836.97
2022-10-06T13:04:02.597Z,102831.66
2022-10-06T13:09:13.958Z,102829.47
2022-10-06T13:14:18.978Z,102835.16
2022-10-06T13:19:28.239Z,102832.38
2022-10-06T13:24:32.021Z,102828.75
2022-10-06T13:29:37.227Z,102821.09
2022-10-06T13:34:43.303Z,102837.03
2022-10-06T13:39:47.374Z,102823.59
2022-10-06T13:44:59.060Z,102823.72
2022-10-06T13:50:06.163Z,102820.88
2022-10-06T13:55:15.735Z,102830.72
2022-10-06T14:00:23.142Z,102825.53
2022-10-06T14:05:30.540Z,102821.91
2022-10-06T14:10:47.023Z,102830.84
2022-10-06T14:15:54.308Z,102828.91
2022-10-06T14:20:58.913Z,102826.94
2022-10-06T14:26:02.691Z,102817.50
2022-10-06T14:31:13.497Z,102836.81
2022-10-06T14:36:20.779Z,102820.97
2022-10-06T14:41:27.897Z,102829.06
2022-10-06T14:46:33.330Z,102821.91
2022-10-06T14:51:38.027Z,102815.34
2022-10-06T14:56:43.007Z,102817.44
2022-10-06T15:01:49.848Z,102817.44
2022-10-06T15:07:11.299Z,102816.37
2022-10-06T15:12:15.162Z,102810.41
2022-10-06T15:17:20.241Z,102808.47
2022-10-06T15:22:24.150Z,102801.50
2022-10-06T15:27:45.548Z,102806.47
2022-10-06T15:32:51.134Z,102797.28
2022-10-06T15:37:56.491Z,102784.00
2022-10-06T15:43:00.288Z,102785.28
2022-10-06T15:48:05.436Z,102788.59
2022-10-06T15:53:09.163Z,102792.37
2022-10-06T15:58:12.875Z,102791.81
2022-10-06T16:03:38.738Z,102781.06
2022-10-06T16:08:44.760Z,102792.37
2022-10-06T16:13:48.484Z,102787.13
2022-10-06T16:18:53.784Z,102791.91
2022-10-06T16:23:57.861Z,102783.22
2022-10-06T16:29:01.596Z,102788.28
2022-10-06T16:34:06.797Z,102783.03
2022-10-06T16:39:14.340Z,102785.97
2022-10-06T16:44:18.507Z,102781.31
2022-10-06T16:49:24.502Z,102779.37
2022-10-06T16:54:28.252Z,102785.87
2022-10-06T16:59:32.014Z,102787.22
2022-10-06T17:04:37.226Z,102783.91
2022-10-06T17:09:55.842Z,102786.53
2022-10-06T17:15:05.180Z,102783.75
2022-10-06T17:20:10.890Z,102780.16
2022-10-06T17:25:15.340Z,102788.84
2022-10-06T17:30:19.167Z,102788.03
2022-10-06T17:35:24.321Z,102785.63
2022-10-06T17:40:28.349Z,102786.94
2022-10-06T17:45:32.151Z,102788.41
2022-10-06T17:50:37.266Z,102781.19
2022-10-06T17:55:40.971Z,102788.19
2022-10-06T18:00:44.881Z,102792.69
2022-10-06T18:05:58.943Z,102791.75
2022-10-06T18:11:20.400Z,102785.47
2022-10-06T18:16:26.724Z,102782.34
2022-10-06T18:21:37.339Z,102777.97
2022-10-06T18:26:41.950Z,102779.53
2022-10-06T18:31:46.141Z,102773.78
2022-10-06T18:36:51.755Z,102774.78
2022-10-06T18:41:57.820Z,102764.19
2022-10-06T18:47:19.172Z,102765.66
2022-10-06T18:52:24.297Z,102758.59
2022-10-06T18:57:28.185Z,102758.34
2022-10-06T19:02:32.271Z,102758.47
2022-10-06T19:07:38.098Z,102756.91
2022-10-06T19:12:41.849Z,102752.41
2022-10-06T19:17:46.360Z,102753.62
2022-10-06T19:22:51.404Z,102758.44
2022-10-06T19:27:55.093Z,102766.56
2022-10-06T19:32:58.751Z,102770.53
2022-10-06T19:38:03.924Z,102766.69
2022-10-06T19:43:07.694Z,102766.88
2022-10-06T19:48:11.580Z,102767.19
2022-10-06T19:53:17.134Z,102772.78
2022-10-06T19:58:20.853Z,102769.94
2022-10-06T20:03:24.619Z,102772.06
2022-10-06T20:08:30.500Z,102770.44
2022-10-06T20:13:37.764Z,102768.09
2022-10-06T20:18:43.326Z,102773.47
2022-10-06T20:23:53.691Z,102772.66
2022-10-06T20:28:57.452Z,102767.91
2022-10-06T20:34:02.832Z,102761.25
2022-10-06T20:39:27.515Z,102761.59
2022-10-06T20:44:31.263Z,102773.59
2022-10-06T20:49:35.442Z,102775.13
2022-10-06T20:54:40.464Z,102768.91
2022-10-06T20:59:45.853Z,102763.13
2022-10-06T21:04:49.565Z,102768.22
2022-10-06T21:09:54.669Z,102761.16
2022-10-06T21:14:58.347Z,102758.59
2022-10-06T21:20:01.996Z,102758.87
2022-10-06T21:25:08.432Z,102755.13
2022-10-06T21:30:13.650Z,102748.47
2022-10-06T21:35:17.379Z,102750.44
2022-10-06T21:40:22.426Z,102745.25
2022-10-06T21:45:32.935Z,102739.97
2022-10-06T21:50:37.007Z,102731.91
2022-10-06T21:55:42.119Z,102727.03
2022-10-06T22:00:45.787Z,102721.41
2022-10-06T22:05:49.536Z,102712.25
2022-10-06T22:10:54.581Z,102714.84
2022-10-06T22:15:58.458Z,102711.66
2022-10-06T22:21:02.153Z,102708.56
2022-10-06T22:26:07.850Z,102707.47
2022-10-06T22:31:13.135Z,102704.28
2022-10-06T22:36:16.990Z,102696.78
2022-10-06T22:41:22.940Z,102690.69
2022-10-06T22:46:27.325Z,102689.28
2022-10-06T22:51:31.014Z,102689.00
2022-10-06T22:56:36.053Z,102676.31
2022-10-06T23:01:39.743Z,102682.50
2022-10-06T23:06:43.394Z,102677.78
2022-10-06T23:11:48.406Z,102666.06
2022-10-06T23:16:52.224Z,102657.22
2022-10-06T23:21:55.961Z,102653.28
2022-10-06T23:27:04.279Z,102658.94
2022-10-06T23:32:07.954Z,102647.00
2022-10-06T23:37:11.756Z,102644.72
2022-10-06T23:42:16.810Z,102641.72
2022-10-06T23:47:20.689Z,102641.09
2022-10-06T23:52:24.375Z,102627.56
2022-10-06T23:57:29.409Z,102619.69
